Terminal Aerodrome Forecast
Issued by NWS

Home | Current Version | Previous Version | Text Only | Print | Product List | Glossary On
Versions: 1 2 3 4 5 6 7 8 9 10 11 12 13 14 15 16 17 18 19
694
FTUS42 KTBW 060540
TAFPGD
TAF
KPGD 060540Z 0606/0706 02010KT P6SM FEW030 FEW110
     FM061000 02009KT P6SM SCT025 BKN035
     FM061900 02008KT P6SM SCT020 BKN030
     FM062200 34008KT P6SM VCSH SCT010 OVC025=

USA.gov is the U.S. government's official web portal to all federal, state and local government web resources and services.